createdAt,value
2019-05-29T00:00:57.693Z,13.87
2019-05-29T00:03:29.647Z,13.88
2019-05-29T00:06:01.775Z,13.94
2019-05-29T00:08:33.730Z,13.95
2019-05-29T00:11:06.060Z,14.00
2019-05-29T00:13:38.087Z,13.97
2019-05-29T00:16:10.414Z,13.87
2019-05-29T00:18:42.420Z,13.83
2019-05-29T00:21:14.725Z,13.87
2019-05-29T00:23:46.770Z,13.87
2019-05-29T00:26:18.820Z,13.88
2019-05-29T00:28:50.804Z,13.85
2019-05-29T00:31:22.754Z,13.79
2019-05-29T00:33:54.733Z,13.75
2019-05-29T00:36:26.810Z,13.76
2019-05-29T00:38:58.862Z,13.74
2019-05-29T00:41:30.931Z,13.64
2019-05-29T00:44:02.898Z,13.57
2019-05-29T00:46:34.946Z,13.56
2019-05-29T00:49:07.709Z,13.50
2019-05-29T00:51:39.839Z,13.50
2019-05-29T00:54:12.527Z,13.50
2019-05-29T00:56:44.643Z,13.49
2019-05-29T00:59:17.418Z,13.39
2019-05-29T01:01:49.543Z,13.29
2019-05-29T01:04:21.546Z,13.24
2019-05-29T01:06:53.523Z,13.26
2019-05-29T01:09:25.785Z,13.26
2019-05-29T01:11:57.764Z,13.28
2019-05-29T01:14:29.731Z,13.31
2019-05-29T01:17:01.995Z,13.33
2019-05-29T01:19:34.265Z,13.33
2019-05-29T01:22:06.752Z,13.30
2019-05-29T01:24:38.785Z,13.25
2019-05-29T01:27:10.758Z,13.16
2019-05-29T01:29:42.722Z,13.17
2019-05-29T01:32:15.519Z,13.17
2019-05-29T01:34:47.569Z,13.18
2019-05-29T01:37:20.309Z,13.16
2019-05-29T01:39:52.339Z,13.19
2019-05-29T01:42:24.282Z,13.00
2019-05-29T01:45:07.071Z,13.06
2019-05-29T01:47:30.087Z,12.95
2019-05-29T01:50:02.251Z,12.94
2019-05-29T01:52:34.298Z,13.00
2019-05-29T01:55:08.504Z,13.04
2019-05-29T01:57:40.871Z,13.00
2019-05-29T02:00:15.703Z,13.00
2019-05-29T02:02:47.878Z,12.96
2019-05-29T02:05:20.195Z,12.95
2019-05-29T02:07:52.190Z,12.93
2019-05-29T02:10:24.439Z,12.92
2019-05-29T02:12:56.483Z,12.89
2019-05-29T02:15:33.539Z,12.80
2019-05-29T02:18:02.745Z,12.80
2019-05-29T02:20:34.737Z,12.78
2019-05-29T02:23:06.809Z,12.76
2019-05-29T02:25:38.861Z,12.36
2019-05-29T02:28:10.863Z,12.71
2019-05-29T02:30:43.189Z,12.77
2019-05-29T02:33:15.138Z,12.75
2019-05-29T02:35:47.215Z,12.76
2019-05-29T02:38:20.453Z,12.73
2019-05-29T02:40:52.607Z,12.74
2019-05-29T02:43:25.979Z,12.78
2019-05-29T02:45:58.551Z,12.86
2019-05-29T02:48:31.820Z,12.90
2019-05-29T02:51:04.009Z,12.88
2019-05-29T02:53:36.285Z,12.87
2019-05-29T02:56:08.261Z,12.86
2019-05-29T02:58:40.362Z,12.90
2019-05-29T03:01:12.818Z,12.85
2019-05-29T03:03:44.801Z,12.84
2019-05-29T03:06:17.115Z,12.87
2019-05-29T03:08:49.280Z,12.88
2019-05-29T03:11:22.901Z,12.85
2019-05-29T03:13:55.098Z,12.81
2019-05-29T03:16:28.788Z,12.82
2019-05-29T03:19:00.939Z,12.82
2019-05-29T03:21:34.591Z,12.86
2019-05-29T03:24:06.791Z,12.89
2019-05-29T03:26:38.804Z,12.53
2019-05-29T03:29:10.848Z,12.94
2019-05-29T03:31:47.177Z,13.01
2019-05-29T03:34:16.505Z,13.13
2019-05-29T03:36:49.147Z,13.39
2019-05-29T03:39:21.436Z,13.27
2019-05-29T03:41:53.518Z,13.80
2019-05-29T03:44:26.317Z,13.92
2019-05-29T03:46:58.410Z,14.20
2019-05-29T03:49:31.114Z,14.53
2019-05-29T03:52:03.237Z,14.72
2019-05-29T03:54:35.551Z,14.87
2019-05-29T03:57:07.660Z,15.07
2019-05-29T03:59:39.927Z,15.21
2019-05-29T04:02:12.200Z,15.17
2019-05-29T04:04:44.100Z,15.16
2019-05-29T04:07:16.223Z,15.19
2019-05-29T04:09:48.228Z,15.00
2019-05-29T04:12:20.321Z,15.39
2019-05-29T04:14:52.425Z,15.41
2019-05-29T04:17:27.226Z,15.31
2019-05-29T04:19:59.960Z,14.95
2019-05-29T04:22:38.280Z,15.26
2019-05-29T04:25:10.522Z,15.36
2019-05-29T04:27:44.556Z,15.45
2019-05-29T04:30:16.921Z,15.22
2019-05-29T04:32:50.729Z,15.00
2019-05-29T04:35:22.794Z,14.82
2019-05-29T04:37:54.841Z,14.60
2019-05-29T04:40:28.594Z,14.67
2019-05-29T04:43:00.747Z,14.72
2019-05-29T04:45:33.539Z,14.67
2019-05-29T04:48:06.495Z,14.80
2019-05-29T04:50:40.496Z,14.85
2019-05-29T04:53:12.572Z,14.97
2019-05-29T04:55:44.507Z,15.07
2019-05-29T04:58:16.640Z,15.10
2019-05-29T05:00:58.549Z,15.26
2019-05-29T05:03:22.461Z,15.44
2019-05-29T05:05:54.467Z,15.70
2019-05-29T05:08:26.450Z,15.81
2019-05-29T05:10:58.996Z,15.86
2019-05-29T05:13:31.446Z,15.80
2019-05-29T05:16:03.933Z,15.62
2019-05-29T05:18:35.931Z,15.43
2019-05-29T05:21:07.988Z,15.30
2019-05-29T05:23:40.524Z,15.24
2019-05-29T05:26:12.828Z,15.24
2019-05-29T05:28:46.083Z,15.22
2019-05-29T05:31:18.810Z,14.77
2019-05-29T05:33:50.860Z,15.04
2019-05-29T05:36:22.821Z,14.99
2019-05-29T05:38:54.781Z,14.96
2019-05-29T05:41:26.853Z,15.01
2019-05-29T05:43:58.808Z,15.06
2019-05-29T05:46:31.024Z,14.90
2019-05-29T05:49:03.004Z,14.73
2019-05-29T05:51:38.358Z,14.55
2019-05-29T05:54:08.842Z,14.59
2019-05-29T05:56:41.804Z,14.68
2019-05-29T05:59:13.790Z,14.33
2019-05-29T06:01:45.842Z,14.76
2019-05-29T06:04:17.988Z,14.80
2019-05-29T06:06:50.556Z,14.93
2019-05-29T06:09:25.541Z,14.87
2019-05-29T06:11:57.705Z,14.83
2019-05-29T06:14:29.982Z,14.77
2019-05-29T06:17:02.118Z,14.88
2019-05-29T06:19:34.987Z,14.98
2019-05-29T06:22:06.976Z,14.93
2019-05-29T06:24:39.045Z,14.92
2019-05-29T06:27:12.385Z,15.01
2019-05-29T06:29:44.427Z,15.18
2019-05-29T06:32:16.673Z,14.99
2019-05-29T06:34:48.731Z,14.55
2019-05-29T06:37:20.713Z,15.00
2019-05-29T06:39:52.703Z,15.07
2019-05-29T06:42:24.657Z,15.13
2019-05-29T06:44:56.909Z,15.13
2019-05-29T06:47:29.087Z,15.15
2019-05-29T06:50:01.156Z,15.21
2019-05-29T06:52:33.095Z,15.13
2019-05-29T06:55:06.433Z,15.16
2019-05-29T06:57:38.451Z,15.25
2019-05-29T07:00:12.209Z,15.31
2019-05-29T07:02:44.864Z,15.38
2019-05-29T07:05:17.042Z,15.57
2019-05-29T07:07:49.046Z,15.56
2019-05-29T07:10:21.156Z,15.55
2019-05-29T07:12:53.117Z,15.66
2019-05-29T07:15:25.181Z,15.66
2019-05-29T07:17:57.175Z,15.63
2019-05-29T07:20:29.346Z,15.62
2019-05-29T07:23:01.376Z,15.48
2019-05-29T07:25:33.548Z,15.30
2019-05-29T07:28:05.539Z,15.38
2019-05-29T07:30:39.044Z,15.42
2019-05-29T07:33:11.298Z,15.55
2019-05-29T07:35:43.629Z,15.71
2019-05-29T07:38:15.768Z,15.80
2019-05-29T07:40:49.935Z,15.81
2019-05-29T07:43:21.690Z,15.93
2019-05-29T07:45:53.886Z,16.10
2019-05-29T07:48:26.126Z,16.03
2019-05-29T07:51:06.644Z,15.98
2019-05-29T07:53:33.765Z,16.02
2019-05-29T07:56:21.406Z,15.92
2019-05-29T07:58:42.220Z,15.80
2019-05-29T08:01:14.030Z,15.82
2019-05-29T08:03:47.485Z,15.88
2019-05-29T08:06:19.515Z,15.92
2019-05-29T08:08:51.694Z,15.84
2019-05-29T08:11:23.739Z,15.80
2019-05-29T08:13:55.797Z,15.85
2019-05-29T08:16:27.774Z,15.96
2019-05-29T08:18:59.868Z,15.93
2019-05-29T08:21:31.925Z,15.83
2019-05-29T08:24:04.220Z,15.88
2019-05-29T08:26:36.467Z,15.89
2019-05-29T08:29:08.529Z,15.84
2019-05-29T08:31:40.730Z,15.87
2019-05-29T08:34:13.006Z,15.91
2019-05-29T08:37:00.833Z,15.81
2019-05-29T08:39:33.496Z,15.79
2019-05-29T08:42:17.833Z,15.81
2019-05-29T08:44:26.858Z,15.85
2019-05-29T08:47:09.489Z,15.92
2019-05-29T08:49:33.037Z,15.79
2019-05-29T08:52:11.981Z,15.77
2019-05-29T08:54:39.154Z,15.86
2019-05-29T08:57:11.504Z,15.98
2019-05-29T08:59:44.429Z,15.96
2019-05-29T09:02:16.370Z,15.98
2019-05-29T09:04:49.809Z,16.13
2019-05-29T09:07:22.110Z,16.11
2019-05-29T09:09:54.176Z,16.14
2019-05-29T09:12:29.709Z,16.20
2019-05-29T09:14:59.852Z,16.28
2019-05-29T09:17:34.593Z,16.35
2019-05-29T09:20:23.427Z,16.21
2019-05-29T09:22:44.244Z,16.16
2019-05-29T09:25:19.101Z,16.27
2019-05-29T09:27:51.140Z,16.37
2019-05-29T09:30:23.607Z,16.50
2019-05-29T09:32:56.006Z,16.54
2019-05-29T09:35:28.146Z,16.64
2019-05-29T09:38:00.234Z,16.70
2019-05-29T09:40:32.413Z,16.79
2019-05-29T09:43:04.676Z,16.84
2019-05-29T09:45:36.942Z,16.56
2019-05-29T09:48:09.088Z,16.52
2019-05-29T09:50:50.157Z,16.60
2019-05-29T09:53:15.502Z,16.68
2019-05-29T09:55:48.256Z,16.65
2019-05-29T09:58:20.241Z,16.55
2019-05-29T10:01:09.787Z,16.53
2019-05-29T10:03:26.650Z,16.56
2019-05-29T10:05:59.500Z,16.52
2019-05-29T10:08:31.793Z,16.53
2019-05-29T10:11:08.495Z,16.58
2019-05-29T10:13:37.694Z,16.54
2019-05-29T10:16:09.810Z,16.71
2019-05-29T10:18:41.799Z,16.88
2019-05-29T10:21:13.964Z,17.01
2019-05-29T10:23:45.931Z,17.08
2019-05-29T10:26:18.001Z,16.86
2019-05-29T10:29:06.742Z,16.77
2019-05-29T10:31:24.083Z,16.83
2019-05-29T10:33:56.129Z,16.83
2019-05-29T10:36:28.243Z,16.97
2019-05-29T10:39:00.450Z,17.06
2019-05-29T10:41:32.479Z,17.09
2019-05-29T10:44:04.500Z,17.16
2019-05-29T10:46:36.566Z,17.21
2019-05-29T10:49:08.866Z,17.24
2019-05-29T10:51:57.980Z,17.31
2019-05-29T10:54:15.540Z,17.29
2019-05-29T10:56:48.761Z,17.23
2019-05-29T10:59:21.094Z,17.17
2019-05-29T11:01:53.797Z,17.21
2019-05-29T11:04:26.024Z,17.26
2019-05-29T11:06:58.041Z,16.82
2019-05-29T11:09:43.286Z,17.26
2019-05-29T11:12:03.834Z,16.83
2019-05-29T11:14:36.037Z,17.12
2019-05-29T11:17:08.348Z,17.19
2019-05-29T11:19:40.743Z,17.16
2019-05-29T11:22:25.684Z,16.99
2019-05-29T11:24:47.973Z,16.99
2019-05-29T11:27:20.076Z,17.07
2019-05-29T11:29:53.266Z,17.17
2019-05-29T11:32:26.062Z,17.31
2019-05-29T11:34:59.578Z,17.12
2019-05-29T11:37:31.759Z,17.49
2019-05-29T11:40:05.207Z,17.57
2019-05-29T11:42:37.160Z,17.63
2019-05-29T11:45:11.024Z,17.60
2019-05-29T11:47:43.002Z,17.55
2019-05-29T11:50:19.537Z,17.44
2019-05-29T11:52:50.332Z,17.42
2019-05-29T11:55:22.641Z,17.22
2019-05-29T11:57:55.865Z,17.20
2019-05-29T12:00:29.497Z,17.17
2019-05-29T12:03:01.785Z,17.16
2019-05-29T12:05:33.836Z,17.18
2019-05-29T12:08:06.533Z,17.20
2019-05-29T12:10:38.483Z,17.20
2019-05-29T12:13:10.629Z,17.35
2019-05-29T12:15:42.945Z,17.25
2019-05-29T12:18:23.450Z,17.09
2019-05-29T12:20:49.633Z,17.00
2019-05-29T12:23:26.258Z,17.02
2019-05-29T12:26:18.840Z,16.97
2019-05-29T12:28:29.369Z,17.07
2019-05-29T12:31:03.361Z,17.28
2019-05-29T12:33:35.726Z,17.41
2019-05-29T12:36:08.093Z,17.43
2019-05-29T12:38:40.457Z,17.43
2019-05-29T12:41:12.749Z,17.56
2019-05-29T12:43:44.697Z,17.67
2019-05-29T12:46:16.843Z,17.72
2019-05-29T12:48:49.087Z,17.78
2019-05-29T12:51:22.198Z,17.64
2019-05-29T12:53:55.767Z,17.54
2019-05-29T12:56:28.131Z,17.47
2019-05-29T12:59:00.569Z,17.43
2019-05-29T13:01:32.675Z,17.46
2019-05-29T13:04:05.045Z,17.39
2019-05-29T13:06:37.048Z,17.26
2019-05-29T13:09:10.134Z,17.21
2019-05-29T13:11:42.105Z,17.28
2019-05-29T13:14:14.163Z,17.34
2019-05-29T13:16:46.450Z,17.33
2019-05-29T13:19:18.401Z,17.07
2019-05-29T13:21:50.510Z,17.37
2019-05-29T13:24:22.473Z,17.35
2019-05-29T13:26:55.504Z,17.32
2019-05-29T13:29:27.591Z,17.29
2019-05-29T13:32:00.317Z,17.26
2019-05-29T13:34:33.370Z,17.19
2019-05-29T13:37:08.021Z,16.90
2019-05-29T13:39:39.398Z,17.20
2019-05-29T13:42:12.238Z,17.28
2019-05-29T13:44:44.341Z,17.27
2019-05-29T13:47:16.325Z,17.22
2019-05-29T13:49:48.399Z,17.20
2019-05-29T13:52:20.407Z,17.28
2019-05-29T13:54:52.384Z,17.38
2019-05-29T13:57:24.487Z,17.41
2019-05-29T13:59:57.825Z,17.46
2019-05-29T14:02:30.207Z,17.40
2019-05-29T14:05:02.806Z,17.32
2019-05-29T14:07:35.019Z,17.33
2019-05-29T14:10:09.700Z,17.38
2019-05-29T14:12:41.761Z,17.31
2019-05-29T14:15:14.623Z,17.08
2019-05-29T14:17:46.717Z,17.04
2019-05-29T14:20:19.578Z,17.07
2019-05-29T14:22:52.513Z,16.98
2019-05-29T14:25:24.873Z,16.99
2019-05-29T14:27:57.241Z,16.97
2019-05-29T14:30:29.729Z,17.01
2019-05-29T14:33:02.339Z,17.01
2019-05-29T14:35:34.474Z,16.83
2019-05-29T14:38:09.867Z,16.75
2019-05-29T14:40:40.557Z,16.79
2019-05-29T14:43:15.569Z,16.95
2019-05-29T14:45:46.496Z,17.11
2019-05-29T14:48:18.574Z,17.22
2019-05-29T14:50:50.749Z,17.31
2019-05-29T14:53:22.723Z,17.35
2019-05-29T14:55:54.984Z,17.36
2019-05-29T14:58:27.155Z,17.37
2019-05-29T15:00:59.115Z,17.42
2019-05-29T15:03:31.113Z,17.43
2019-05-29T15:06:03.543Z,17.44
2019-05-29T15:08:35.555Z,17.45
2019-05-29T15:11:24.504Z,17.39
2019-05-29T15:13:56.590Z,17.26
2019-05-29T15:17:10.974Z,17.19
2019-05-29T15:20:05.330Z,17.15
2019-05-29T15:29:30.395Z,17.47
2019-05-29T15:43:49.309Z,17.00
2019-05-29T15:57:31.666Z,17.10
2019-05-29T16:00:07.090Z,17.19
2019-05-29T16:02:39.203Z,17.28
2019-05-29T16:05:15.414Z,17.37
2019-05-29T16:07:47.591Z,17.41
2019-05-29T16:10:21.360Z,17.37
2019-05-29T16:12:53.386Z,17.36
2019-05-29T16:15:25.462Z,17.45
2019-05-29T16:17:57.609Z,17.53
2019-05-29T16:20:29.575Z,17.57
2019-05-29T16:23:01.551Z,17.66
2019-05-29T16:25:40.220Z,17.72
2019-05-29T16:28:07.407Z,17.79
2019-05-29T16:30:39.390Z,17.85
2019-05-29T16:33:12.835Z,17.88
2019-05-29T16:35:45.230Z,17.92
2019-05-29T16:38:17.694Z,18.03
2019-05-29T16:40:50.017Z,18.16
2019-05-29T16:43:22.372Z,18.21
2019-05-29T16:45:54.617Z,18.08
2019-05-29T16:48:26.600Z,18.04
2019-05-29T16:50:58.672Z,18.11
2019-05-29T16:53:30.627Z,18.11
2019-05-29T16:56:02.670Z,18.10
2019-05-29T16:58:34.829Z,18.07
2019-05-29T17:01:07.015Z,18.08
2019-05-29T17:03:39.194Z,18.09
2019-05-29T17:06:11.404Z,18.10
2019-05-29T17:08:43.986Z,18.10
2019-05-29T17:11:16.420Z,18.05
2019-05-29T17:13:49.630Z,18.05
2019-05-29T17:16:23.160Z,18.06
2019-05-29T17:18:55.781Z,18.03
2019-05-29T17:21:28.018Z,18.03
2019-05-29T17:24:00.260Z,18.05
2019-05-29T17:26:32.287Z,18.02
2019-05-29T17:29:04.255Z,18.03
2019-05-29T17:31:36.275Z,18.04
2019-05-29T17:34:08.200Z,18.05
2019-05-29T17:36:40.153Z,18.03
2019-05-29T17:39:12.424Z,17.98
2019-05-29T17:41:44.594Z,17.86
2019-05-29T17:44:17.419Z,17.83
2019-05-29T17:46:49.450Z,17.82
2019-05-29T17:49:30.341Z,17.83
2019-05-29T17:51:55.308Z,17.79
2019-05-29T17:54:27.689Z,17.80
2019-05-29T17:56:59.647Z,17.84
2019-05-29T17:59:31.635Z,17.83
2019-05-29T18:02:04.089Z,17.79
2019-05-29T18:04:36.325Z,17.77
2019-05-29T18:07:08.386Z,17.72
2019-05-29T18:09:40.436Z,17.67
2019-05-29T18:12:12.410Z,17.64
2019-05-29T18:14:44.491Z,17.61
2019-05-29T18:17:17.486Z,17.60
2019-05-29T18:19:49.607Z,17.62
2019-05-29T18:22:21.690Z,17.61
2019-05-29T18:24:53.659Z,17.61
2019-05-29T18:27:26.031Z,17.61
2019-05-29T18:30:08.242Z,17.60
2019-05-29T18:32:40.282Z,17.60
2019-05-29T18:35:12.601Z,17.56
2019-05-29T18:37:44.605Z,17.57
2019-05-29T18:40:17.450Z,17.57
2019-05-29T18:42:49.376Z,17.55
2019-05-29T18:45:24.757Z,17.48
2019-05-29T18:47:56.733Z,17.37
2019-05-29T18:50:29.694Z,17.38
2019-05-29T18:53:01.940Z,17.67
2019-05-29T18:55:33.923Z,17.99
2019-05-29T18:58:05.995Z,18.29
2019-05-29T19:00:38.058Z,18.36
2019-05-29T19:03:10.044Z,18.21
2019-05-29T19:05:43.308Z,17.95
2019-05-29T19:08:15.303Z,17.67
2019-05-29T19:10:47.582Z,17.44
2019-05-29T19:13:19.605Z,17.27
2019-05-29T19:15:51.565Z,17.12
2019-05-29T19:18:24.104Z,17.01
2019-05-29T19:20:56.169Z,16.92
2019-05-29T19:23:28.745Z,16.83
2019-05-29T19:26:00.783Z,16.75
2019-05-29T19:28:32.915Z,16.70
2019-05-29T19:31:05.032Z,16.65
2019-05-29T19:33:37.642Z,16.62
2019-05-29T19:36:09.874Z,16.60
2019-05-29T19:38:41.862Z,16.56
2019-05-29T19:41:13.897Z,16.53
2019-05-29T19:43:45.925Z,16.53
2019-05-29T19:46:17.909Z,16.50
2019-05-29T19:48:50.166Z,16.47
2019-05-29T19:51:22.105Z,16.47
2019-05-29T19:53:54.102Z,16.47
2019-05-29T19:56:26.061Z,16.44
2019-05-29T19:58:58.002Z,16.44
2019-05-29T20:01:35.655Z,16.42
2019-05-29T20:04:03.985Z,16.06
2019-05-29T20:06:37.152Z,16.37
2019-05-29T20:09:09.409Z,16.32
2019-05-29T20:11:41.471Z,16.27
2019-05-29T20:14:13.579Z,16.27
2019-05-29T20:16:45.623Z,16.23
2019-05-29T20:19:17.705Z,16.21
2019-05-29T20:21:49.943Z,16.18
2019-05-29T20:24:22.062Z,16.17
2019-05-29T20:26:54.395Z,16.16
2019-05-29T20:29:26.501Z,16.15
2019-05-29T20:31:58.588Z,16.11
2019-05-29T20:34:30.742Z,16.07
2019-05-29T20:37:04.664Z,16.04
2019-05-29T20:39:36.759Z,16.01
2019-05-29T20:42:09.625Z,15.98
2019-05-29T20:44:42.997Z,15.91
2019-05-29T20:47:15.243Z,15.87
2019-05-29T20:49:47.737Z,15.80
2019-05-29T20:52:19.907Z,15.74
2019-05-29T20:54:51.937Z,15.69
2019-05-29T20:57:23.977Z,15.65
2019-05-29T20:59:56.089Z,15.60
2019-05-29T21:02:29.903Z,15.54
2019-05-29T21:05:01.958Z,15.51
2019-05-29T21:07:34.621Z,15.49
2019-05-29T21:10:08.406Z,15.48
2019-05-29T21:12:44.272Z,15.45
2019-05-29T21:15:14.568Z,15.45
2019-05-29T21:17:46.604Z,15.41
2019-05-29T21:20:18.996Z,15.37
2019-05-29T21:22:51.217Z,15.34
2019-05-29T21:25:23.198Z,15.29
2019-05-29T21:27:55.324Z,15.24
2019-05-29T21:30:27.631Z,15.18
2019-05-29T21:32:59.564Z,15.13
2019-05-29T21:35:31.596Z,15.11
2019-05-29T21:38:03.645Z,15.07
2019-05-29T21:40:36.305Z,15.06
2019-05-29T21:43:08.546Z,15.02
2019-05-29T21:45:41.032Z,14.97
2019-05-29T21:48:13.099Z,14.95
2019-05-29T21:50:45.517Z,14.94
2019-05-29T21:53:17.568Z,14.96
2019-05-29T21:55:49.534Z,14.94
2019-05-29T21:58:21.513Z,14.94
2019-05-29T22:00:54.156Z,14.94
2019-05-29T22:03:26.214Z,14.91
2019-05-29T22:05:58.296Z,14.87
2019-05-29T22:08:30.328Z,14.84
2019-05-29T22:11:02.484Z,14.81
2019-05-29T22:13:34.696Z,14.78
2019-05-29T22:16:07.220Z,14.75
2019-05-29T22:18:40.569Z,14.73
2019-05-29T22:21:14.912Z,14.70
2019-05-29T22:23:47.943Z,14.69
2019-05-29T22:26:20.759Z,14.66
2019-05-29T22:28:53.185Z,14.64
2019-05-29T22:31:25.228Z,14.61
2019-05-29T22:33:57.490Z,14.58
2019-05-29T22:36:29.813Z,14.58
2019-05-29T22:39:01.872Z,14.55
2019-05-29T22:41:33.916Z,14.53
2019-05-29T22:44:06.571Z,14.53
2019-05-29T22:46:38.755Z,14.49
2019-05-29T22:49:10.751Z,14.46
2019-05-29T22:51:42.774Z,14.41
2019-05-29T22:54:14.822Z,14.39
2019-05-29T22:56:46.761Z,14.38
2019-05-29T22:59:31.390Z,14.36
2019-05-29T23:01:52.504Z,13.99
2019-05-29T23:04:24.489Z,14.32
2019-05-29T23:06:56.554Z,14.28
2019-05-29T23:09:28.571Z,14.26
2019-05-29T23:12:00.533Z,14.26
2019-05-29T23:14:32.635Z,14.24
2019-05-29T23:17:04.612Z,14.21
2019-05-29T23:19:36.568Z,14.19
2019-05-29T23:22:08.535Z,13.82
2019-05-29T23:24:40.627Z,13.79
2019-05-29T23:27:12.604Z,14.15
2019-05-29T23:29:48.868Z,14.13
2019-05-29T23:32:18.239Z,14.11
2019-05-29T23:34:50.320Z,14.09
2019-05-29T23:37:22.401Z,14.07
2019-05-29T23:39:55.047Z,14.05
2019-05-29T23:42:27.069Z,14.03
2019-05-29T23:44:59.478Z,14.01
2019-05-29T23:47:31.487Z,14.01
2019-05-29T23:50:04.981Z,13.98
2019-05-29T23:52:37.038Z,13.94
2019-05-29T23:55:09.762Z,13.91
2019-05-29T23:57:41.746Z,13.87
